Machigasta, Argentina
Current Conditions -  °F | °C
As of 5:00 AM on Sunday 21 Dec 2014 (Local Time) from SANT Reporting Station
Drizzle Drizzle  
Wind Chill: 64°   Ceiling: 800
Heat Index: 64°   Visibility: 5mi
Dew Point: 63°   Wind: 16mph
Humidity: 94%   Direction: 180°S
Pressure: 29.83"   Gusts: NA
Location:  28.55°S, 66.8°W
Report Text: SANT 210800Z 18014KT 8000 DZ BKN008 OVC03518/17 Q1010
Loading
Personal Weather Stations






























Interactive Weather Map New forecast layout! Learn more

10-Day Weather Forecast

Advertisements
Track Severe Weather on mobile